Time;durP1;ratioP1;P1;durP2;ratioP2;P2;SDS_P1;SDS_P2;PMS_P1;PMS_P2;Temp;Humidity;BMP_temperature;BMP_pressure;BME280_temperature;BME280_humidity;BME280_pressure;Samples;Min_cycle;Max_cycle;Signal;HPM_P1;HPM_P2
2021/03/16 00:00:53;;;;;;;;;;;;;;;20.88;50.36;100578.47;2089416;28;1647;-73
2021/03/16 00:01:53;;;;;;;;;;;;;;;20.88;50.18;100574.81;2090308;28;1060;-73
2021/03/16 00:02:54;;;;;;;;;;;;;;;20.88;50.19;100581.31;2090287;28;1149;-71
2021/03/16 00:03:55;;;;;;;;;;;;;;;20.89;50.25;100582.97;2089096;28;1687;-72
2021/03/16 00:04:56;;;;;;;;;;;;;;;20.88;50.26;100581.31;2090274;28;1131;-72
2021/03/16 00:05:57;;;;;;;;;;;;;;;20.89;50.29;100580.13;2089773;28;1111;-72
2021/03/16 00:06:58;;;;;;;;;;;;;;;20.89;50.36;100591.50;2090386;28;1080;-73
2021/03/16 00:07:59;;;;;;;;;;;;;;;20.89;50.55;100588.66;2089668;28;1357;-72
2021/03/16 00:09:00;;;;;;;;;;;;;;;20.89;50.41;100591.50;2089784;28;1981;-72
2021/03/16 00:10:01;;;;;;;;;;;;;;;20.89;50.36;100582.97;2090090;28;1255;-72
2021/03/16 00:11:01;;;;;;;;;;;;;;;20.89;50.50;100597.19;2089035;28;1636;-72
2021/03/16 00:12:02;;;;;;;;;;;;;;;20.90;50.60;100593.16;2089634;28;2133;-72
2021/03/16 00:13:03;;;;;;;;;;;;;;;20.90;50.72;100596.00;2090090;28;1114;-72
2021/03/16 00:14:04;;;;;;;;;;;;;;;20.91;50.64;100600.50;2090718;28;1123;-72
2021/03/16 00:15:04;;;;;;;;;;;;;;;20.91;50.81;100593.97;2089990;28;1716;-72
2021/03/16 00:16:05;;;;;;;;;;;;;;;20.91;50.93;100600.50;2092092;28;2056;-73
2021/03/16 00:17:06;;;;;;;;;;;;;;;20.91;50.75;100603.34;2091808;28;1201;-72
2021/03/16 00:18:13;;;;;;;;;;;;;;;20.91;50.79;100603.34;2082665;28;1093;-72
2021/03/16 00:19:14;;;;;;;;;;;;;;;20.91;50.67;100609.03;2084114;28;1096;-72
2021/03/16 00:20:15;;;;;;;;;;;;;;;20.91;50.72;100606.19;2091140;28;1821;-72
2021/03/16 00:21:16;;;;;;;;;;;;;;;20.92;50.85;100604.16;2091337;28;1350;-73
2021/03/16 00:22:17;;;;;;;;;;;;;;;20.91;50.72;100602.50;2091700;28;1784;-72
2021/03/16 00:23:19;;;;;;;;;;;;;;;20.91;50.83;100609.03;2092081;28;1834;-73
2021/03/16 00:24:19;;;;;;;;;;;;;;;20.92;50.73;100609.84;2090737;28;1317;-74
2021/03/16 00:25:20;;;;;;;;;;;;;;;20.92;50.85;100601.31;2091614;28;1789;-72
2021/03/16 00:26:21;;;;;;;;;;;;;;;20.93;51.09;100607.84;2090946;28;1753;-72
2021/03/16 00:27:22;;;;;;;;;;;;;;;20.91;50.99;100600.50;2091579;28;1803;-72
2021/03/16 00:28:23;;;;;;;;;;;;;;;20.92;51.08;100609.84;2091461;28;1977;-72
2021/03/16 00:29:23;;;;;;;;;;;;;;;20.93;51.03;100610.69;2088675;28;1744;-73
2021/03/16 00:30:24;;;;;;;;;;;;;;;20.93;51.06;100614.38;2090991;28;1822;-72
2021/03/16 00:31:25;;;;;;;;;;;;;;;20.93;50.98;100611.53;2091747;28;1676;-72
2021/03/16 00:32:26;;;;;;;;;;;;;;;20.93;50.84;100610.69;2092094;28;1376;-73
2021/03/16 00:33:27;;;;;;;;;;;;;;;20.93;51.04;100613.53;2091621;28;1347;-72
2021/03/16 00:34:28;;;;;;;;;;;;;;;20.93;51.05;100610.69;2093515;28;1229;-73
2021/03/16 00:35:28;;;;;;;;;;;;;;;20.94;51.02;100609.50;2094351;28;1869;-73
2021/03/16 00:36:29;;;;;;;;;;;;;;;20.93;51.09;100617.22;2087651;28;1745;-73
2021/03/16 00:37:30;;;;;;;;;;;;;;;20.93;50.99;100620.06;2089838;28;1555;-72
2021/03/16 00:38:31;;;;;;;;;;;;;;;20.94;51.27;100612.34;2090728;28;1756;-73
2021/03/16 00:39:31;;;;;;;;;;;;;;;20.94;51.35;100616.00;2091501;28;1047;-72
2021/03/16 00:40:32;;;;;;;;;;;;;;;20.94;51.03;100627.38;2091110;28;2249;-73
2021/03/16 00:41:33;;;;;;;;;;;;;;;20.94;51.34;100620.88;2091581;28;1098;-73
2021/03/16 00:42:34;;;;;;;;;;;;;;;20.94;51.17;100620.88;2089487;28;1579;-73
2021/03/16 00:43:34;;;;;;;;;;;;;;;20.94;51.24;100616.00;2091205;28;1828;-73
2021/03/16 00:44:35;;;;;;;;;;;;;;;20.94;51.45;100623.72;2092239;28;1075;-73
2021/03/16 00:45:36;;;;;;;;;;;;;;;20.95;51.41;100628.22;2094484;28;1212;-72
2021/03/16 00:46:37;;;;;;;;;;;;;;;20.94;51.21;100629.41;2097253;28;1138;-75
2021/03/16 00:47:39;;;;;;;;;;;;;;;20.95;51.37;100631.91;2091484;28;1064;-73
2021/03/16 00:48:41;;;;;;;;;;;;;;;20.95;51.23;100628.22;2084341;28;2005;-72
2021/03/16 00:49:42;;;;;;;;;;;;;;;20.95;51.32;100634.75;2096461;28;1098;-72
2021/03/16 00:50:42;;;;;;;;;;;;;;;20.95;51.46;100628.22;2091824;28;1080;-72
2021/03/16 00:51:43;;;;;;;;;;;;;;;20.95;51.45;100639.59;2089543;28;1192;-72
2021/03/16 00:52:44;;;;;;;;;;;;;;;20.95;51.56;100634.75;2094398;28;1112;-72
2021/03/16 00:53:46;;;;;;;;;;;;;;;20.96;51.48;100644.13;2090996;28;1759;-72
2021/03/16 00:54:47;;;;;;;;;;;;;;;20.95;51.45;100640.44;2094355;28;1082;-73
2021/03/16 00:55:48;;;;;;;;;;;;;;;20.95;51.47;100642.44;2096616;28;1112;-73
2021/03/16 00:56:48;;;;;;;;;;;;;;;20.96;51.34;100646.97;2091586;28;1145;-72
2021/03/16 00:57:49;;;;;;;;;;;;;;;20.94;51.46;100643.63;2091090;28;1246;-72
2021/03/16 00:58:50;;;;;;;;;;;;;;;20.95;51.35;100640.44;2091371;28;1654;-72
2021/03/16 00:59:50;;;;;;;;;;;;;;;20.95;51.52;100642.44;2091350;28;1141;-73
2021/03/16 01:01:05;;;;;;;;;;;;;;;20.95;51.35;100642.44;2091045;28;1084;-73
2021/03/16 01:02:06;;;;;;;;;;;;;;;20.95;51.44;100642.44;2091599;28;1211;-74
2021/03/16 01:03:07;;;;;;;;;;;;;;;20.96;51.43;100646.97;2090816;28;1758;-73
2021/03/16 01:04:08;;;;;;;;;;;;;;;20.94;51.38;100655.00;2095202;28;1119;-72
2021/03/16 01:05:09;;;;;;;;;;;;;;;20.95;51.55;100656.66;2091615;28;1072;-72
2021/03/16 01:06:09;;;;;;;;;;;;;;;20.96;51.58;100658.34;2091786;28;1111;-73
2021/03/16 01:07:10;;;;;;;;;;;;;;;20.96;51.71;100650.63;2095849;28;1099;-72
2021/03/16 01:08:11;;;;;;;;;;;;;;;20.97;51.48;100659.97;2090769;28;1651;-72
2021/03/16 01:09:12;;;;;;;;;;;;;;;20.96;51.68;100661.19;2091149;28;1910;-73
2021/03/16 01:10:14;;;;;;;;;;;;;;;20.97;51.65;100659.97;2095599;28;1151;-73
2021/03/16 01:11:14;;;;;;;;;;;;;;;20.97;51.58;100657.13;2093845;28;1199;-72
2021/03/16 01:12:15;;;;;;;;;;;;;;;20.96;51.65;100661.19;2091312;28;1147;-73
2021/03/16 01:13:16;;;;;;;;;;;;;;;20.97;51.70;100659.97;2090548;28;1755;-75
2021/03/16 01:14:17;;;;;;;;;;;;;;;20.95;51.73;100656.66;2091194;28;1040;-72
2021/03/16 01:15:18;;;;;;;;;;;;;;;20.95;51.70;100660.34;2091519;28;1178;-73
2021/03/16 01:16:18;;;;;;;;;;;;;;;20.95;51.69;100654.66;2095443;28;1188;-72
2021/03/16 01:17:19;;;;;;;;;;;;;;;20.97;51.92;100663.66;2095776;28;1059;-80
2021/03/16 01:18:20;;;;;;;;;;;;;;;20.96;51.65;100659.16;2090917;28;1751;-81
2021/03/16 01:19:21;;;;;;;;;;;;;;;20.96;51.74;100670.53;2091493;28;1568;-80
2021/03/16 01:20:22;;;;;;;;;;;;;;;20.95;51.55;100668.03;2091151;28;1104;-76
2021/03/16 01:21:23;;;;;;;;;;;;;;;20.94;51.39;100667.19;2088777;28;1348;-74
2021/03/16 01:22:23;;;;;;;;;;;;;;;20.94;51.53;100661.50;2091084;28;1774;-71
2021/03/16 01:23:24;;;;;;;;;;;;;;;20.95;51.66;100659.50;2091139;28;1748;-74
2021/03/16 01:24:41;;;;;;;;;;;;;;;20.95;51.49;100666.03;2089457;28;1151;-74
2021/03/16 01:25:42;;;;;;;;;;;;;;;20.94;51.42;100672.06;2094015;28;1171;-72
2021/03/16 01:26:43;;;;;;;;;;;;;;;20.95;51.36;100668.88;2093644;28;1149;-72
2021/03/16 01:27:44;;;;;;;;;;;;;;;20.96;51.38;100675.41;2091875;28;1121;-73
2021/03/16 01:28:44;;;;;;;;;;;;;;;20.95;51.47;100676.56;2090651;28;1914;-72
2021/03/16 01:29:45;;;;;;;;;;;;;;;20.95;51.49;100673.72;2090716;28;1676;-72
2021/03/16 01:30:46;;;;;;;;;;;;;;;20.95;51.38;100676.56;2089703;28;1647;-72
2021/03/16 01:31:47;;;;;;;;;;;;;;;20.94;51.35;100678.59;2091296;28;1315;-72
2021/03/16 01:32:48;;;;;;;;;;;;;;;20.96;51.38;100683.94;2091085;28;1048;-72
2021/03/16 01:33:49;;;;;;;;;;;;;;;20.96;51.38;100686.78;2090628;28;1825;-72
2021/03/16 01:34:50;;;;;;;;;;;;;;;20.96;51.36;100678.25;2090804;28;1643;-73
2021/03/16 01:35:51;;;;;;;;;;;;;;;20.96;51.50;100684.75;2091085;28;1240;-73
2021/03/16 01:36:51;;;;;;;;;;;;;;;20.96;51.38;100686.78;2091305;28;1123;-72
2021/03/16 01:37:52;;;;;;;;;;;;;;;20.95;51.34;100687.94;2091287;28;1271;-72
2021/03/16 01:38:53;;;;;;;;;;;;;;;20.94;51.26;100689.94;2093369;28;1633;-72
2021/03/16 01:39:54;;;;;;;;;;;;;;;20.96;51.41;100692.47;2090404;28;1533;-72
2021/03/16 01:40:54;;;;;;;;;;;;;;;20.95;51.28;100687.94;2091246;28;2263;-72
2021/03/16 01:41:56;;;;;;;;;;;;;;;20.95;51.26;100690.78;2091073;28;1056;-72
2021/03/16 01:42:57;;;;;;;;;;;;;;;20.95;51.38;100696.47;2089994;28;1428;-73
2021/03/16 01:43:57;;;;;;;;;;;;;;;20.96;51.40;100692.47;2090569;28;1760;-72
2021/03/16 01:44:58;;;;;;;;;;;;;;;20.95;51.33;100697.31;2091410;28;1060;-72
2021/03/16 01:45:59;;;;;;;;;;;;;;;20.96;51.42;100695.31;2091160;28;1224;-72
2021/03/16 01:47:00;;;;;;;;;;;;;;;20.95;51.25;100702.16;2091165;28;1159;-72
2021/03/16 01:48:01;;;;;;;;;;;;;;;20.96;51.30;100698.16;2090974;28;1100;-72
2021/03/16 01:49:02;;;;;;;;;;;;;;;20.95;51.28;100694.47;2090716;28;2005;-72
2021/03/16 01:50:04;;;;;;;;;;;;;;;20.95;51.42;100707.84;2091009;28;1132;-72
2021/03/16 01:51:06;;;;;;;;;;;;;;;20.94;51.25;100695.66;2091208;28;1404;-72
2021/03/16 01:52:06;;;;;;;;;;;;;;;20.95;51.30;100703.00;2089747;28;1381;-73
2021/03/16 01:53:07;;;;;;;;;;;;;;;20.95;51.44;100696.47;2090750;28;1651;-73
2021/03/16 01:54:08;;;;;;;;;;;;;;;20.96;51.38;100703.84;2090831;28;2075;-73
2021/03/16 01:55:09;;;;;;;;;;;;;;;20.95;51.18;100703.00;2091062;28;1051;-75
2021/03/16 01:56:09;;;;;;;;;;;;;;;20.96;51.23;100706.69;2091000;28;1009;-72
2021/03/16 01:57:10;;;;;;;;;;;;;;;20.94;51.32;100704.19;2091175;28;1394;-72
2021/03/16 01:58:11;;;;;;;;;;;;;;;20.95;51.22;100699.31;2090863;28;1679;-72
2021/03/16 01:59:12;;;;;;;;;;;;;;;20.95;51.24;100705.84;2090750;28;2063;-73
2021/03/16 02:00:13;;;;;;;;;;;;;;;20.95;51.17;100694.47;2091098;28;1132;-72
2021/03/16 02:01:14;;;;;;;;;;;;;;;20.96;51.31;100706.69;2090848;28;1671;-72
2021/03/16 02:02:15;;;;;;;;;;;;;;;20.95;51.22;100705.00;2090782;28;1088;-73
2021/03/16 02:03:17;;;;;;;;;;;;;;;20.95;51.30;100705.84;2090641;28;1710;-73
2021/03/16 02:04:18;;;;;;;;;;;;;;;20.95;51.34;100705.00;2090836;28;1123;-72
2021/03/16 02:05:18;;;;;;;;;;;;;;;20.95;51.28;100707.84;2088398;28;1231;-72
2021/03/16 02:06:22;;;;;;;;;;;;;;;20.95;51.31;100713.53;2090840;28;1766;-72
2021/03/16 02:07:22;;;;;;;;;;;;;;;20.94;51.18;100707.03;2090911;28;1160;-72
2021/03/16 02:08:23;;;;;;;;;;;;;;;20.95;51.36;100708.69;2090885;28;1334;-72
2021/03/16 02:09:24;;;;;;;;;;;;;;;20.95;51.28;100716.38;2090964;28;1985;-73
2021/03/16 02:10:25;;;;;;;;;;;;;;;20.95;51.16;100713.53;2090977;28;1076;-71
2021/03/16 02:11:25;;;;;;;;;;;;;;;20.95;51.31;100713.53;2090605;28;1663;-73
2021/03/16 02:12:26;;;;;;;;;;;;;;;20.94;51.21;100712.72;2088496;28;1177;-75
2021/03/16 02:13:27;;;;;;;;;;;;;;;20.94;51.21;100711.88;2090825;28;1311;-78
2021/03/16 02:14:28;;;;;;;;;;;;;;;20.94;51.49;100715.56;2090500;28;1742;-74
2021/03/16 02:15:29;;;;;;;;;;;;;;;20.95;51.25;100716.38;2090818;28;1408;-73
2021/03/16 02:16:29;;;;;;;;;;;;;;;20.95;51.27;100708.69;2090650;28;1727;-72
2021/03/16 02:17:30;;;;;;;;;;;;;;;20.94;51.46;100723.25;2090422;28;1103;-72
2021/03/16 02:18:31;;;;;;;;;;;;;;;20.94;51.32;100726.94;2089160;28;1463;-72
2021/03/16 02:19:32;;;;;;;;;;;;;;;20.94;51.47;100720.41;2089976;28;1393;-73
2021/03/16 02:20:33;;;;;;;;;;;;;;;20.95;51.48;100722.06;2091075;28;1245;-73
2021/03/16 02:21:34;;;;;;;;;;;;;;;20.95;51.39;100719.22;2090711;28;1640;-72
2021/03/16 02:22:35;;;;;;;;;;;;;;;20.95;51.44;100730.59;2091865;28;1237;-72
2021/03/16 02:23:35;;;;;;;;;;;;;;;20.96;51.52;100726.59;2090651;28;1707;-73
2021/03/16 02:24:36;;;;;;;;;;;;;;;20.95;51.49;100731.44;2090924;28;1338;-72
2021/03/16 02:25:37;;;;;;;;;;;;;;;20.95;51.43;100731.44;2090776;28;1130;-73
2021/03/16 02:26:38;;;;;;;;;;;;;;;20.95;51.42;100744.81;2088764;28;1703;-73
2021/03/16 02:27:39;;;;;;;;;;;;;;;20.95;51.37;100727.75;2088494;28;1745;-72
2021/03/16 02:28:39;;;;;;;;;;;;;;;20.95;51.47;100741.97;2086886;28;1957;-73
2021/03/16 02:29:40;;;;;;;;;;;;;;;20.94;51.28;100738.31;2088410;28;1229;-71
2021/03/16 02:30:41;;;;;;;;;;;;;;;20.95;51.37;100744.81;2082742;28;1108;-73
2021/03/16 02:31:43;;;;;;;;;;;;;;;20.94;51.37;100741.16;2089916;28;1615;-72
2021/03/16 02:32:44;;;;;;;;;;;;;;;20.95;51.34;100742.81;2090700;28;1896;-72
2021/03/16 02:33:44;;;;;;;;;;;;;;;20.94;51.34;100748.84;2090437;28;1745;-73
2021/03/16 02:34:45;;;;;;;;;;;;;;;20.96;51.49;100746.50;2090683;28;1773;-72
2021/03/16 02:35:46;;;;;;;;;;;;;;;20.95;51.44;100750.50;2090940;28;1258;-73
2021/03/16 02:36:47;;;;;;;;;;;;;;;20.95;51.52;100747.66;2090362;28;1073;-72
2021/03/16 02:37:47;;;;;;;;;;;;;;;20.95;51.56;100747.66;2089898;28;1204;-72
2021/03/16 02:38:48;;;;;;;;;;;;;;;20.95;51.54;100753.34;2090401;28;1814;-72
2021/03/16 02:39:49;;;;;;;;;;;;;;;20.93;51.49;100750.88;2090845;28;1706;-72
2021/03/16 02:40:49;;;;;;;;;;;;;;;20.93;51.48;100745.19;2090681;28;2235;-72
2021/03/16 02:41:51;;;;;;;;;;;;;;;20.94;51.51;100752.53;2090727;28;1161;-73
2021/03/16 02:42:51;;;;;;;;;;;;;;;20.93;51.36;100759.41;2090688;28;1436;-73
2021/03/16 02:43:52;;;;;;;;;;;;;;;20.94;51.59;100754.53;2090458;28;1647;-72
2021/03/16 02:44:53;;;;;;;;;;;;;;;20.93;51.38;100759.41;2090893;28;1139;-72
2021/03/16 02:45:54;;;;;;;;;;;;;;;20.94;51.34;100754.53;2090765;28;1040;-72
2021/03/16 02:46:55;;;;;;;;;;;;;;;20.94;51.46;100763.06;2089803;28;1184;-72
2021/03/16 02:47:56;;;;;;;;;;;;;;;20.93;51.31;100758.59;2090574;28;1895;-72
2021/03/16 02:48:57;;;;;;;;;;;;;;;20.93;51.52;100765.09;2090391;28;1973;-72
2021/03/16 02:49:58;;;;;;;;;;;;;;;20.91;51.47;100765.44;2090777;28;1073;-73
2021/03/16 02:50:59;;;;;;;;;;;;;;;20.92;51.33;100774.78;2090746;28;1136;-72
2021/03/16 02:51:59;;;;;;;;;;;;;;;20.93;51.47;100772.81;2090568;28;1424;-72
2021/03/16 02:53:00;;;;;;;;;;;;;;;20.93;51.39;100779.31;2090665;28;1203;-72
2021/03/16 02:54:01;;;;;;;;;;;;;;;20.93;51.26;100775.66;2090238;28;1831;-72
2021/03/16 02:55:02;;;;;;;;;;;;;;;20.92;51.43;100771.94;2090859;28;1200;-73
2021/03/16 02:56:02;;;;;;;;;;;;;;;20.92;51.51;100774.78;2090562;28;1236;-72
2021/03/16 02:57:03;;;;;;;;;;;;;;;20.91;51.41;100776.81;2090604;28;1194;-72
2021/03/16 02:58:04;;;;;;;;;;;;;;;20.91;51.60;100782.50;2090806;28;1208;-73
2021/03/16 02:59:05;;;;;;;;;;;;;;;20.91;51.51;100776.81;2090388;28;1694;-74
2021/03/16 03:00:06;;;;;;;;;;;;;;;20.91;51.55;100778.81;2089756;28;1078;-72
2021/03/16 03:01:07;;;;;;;;;;;;;;;20.90;51.54;100786.53;2090556;28;1235;-74
2021/03/16 03:02:08;;;;;;;;;;;;;;;20.91;51.37;100778.81;2090359;28;1322;-74
2021/03/16 03:03:09;;;;;;;;;;;;;;;20.91;51.42;100781.66;2081742;28;1428;-71
2021/03/16 03:04:10;;;;;;;;;;;;;;;20.90;51.40;100795.06;2081405;28;1716;-72
2021/03/16 03:05:11;;;;;;;;;;;;;;;20.90;51.42;100789.38;2090678;28;1063;-72
2021/03/16 03:06:12;;;;;;;;;;;;;;;20.91;51.25;100785.34;2090535;28;1273;-71
2021/03/16 03:07:13;;;;;;;;;;;;;;;20.89;51.33;100792.56;2090708;28;1096;-71
2021/03/16 03:08:14;;;;;;;;;;;;;;;20.89;51.36;100801.91;2090807;28;1083;-72
2021/03/16 03:09:14;;;;;;;;;;;;;;;20.89;51.27;100792.56;2090185;28;1906;-72
2021/03/16 03:10:15;;;;;;;;;;;;;;;20.88;51.29;100791.75;2090614;28;1109;-72
2021/03/16 03:11:16;;;;;;;;;;;;;;;20.88;51.22;100797.44;2090601;28;1044;-71
2021/03/16 03:12:17;;;;;;;;;;;;;;;20.88;51.40;100788.06;2090511;28;1432;-72
2021/03/16 03:13:17;;;;;;;;;;;;;;;20.88;51.34;100796.59;2089143;28;1706;-72
2021/03/16 03:14:18;;;;;;;;;;;;;;;20.88;51.24;100802.28;2089878;28;1870;-71
2021/03/16 03:15:19;;;;;;;;;;;;;;;20.88;51.31;100793.75;2090640;28;1200;-71
2021/03/16 03:16:20;;;;;;;;;;;;;;;20.88;51.29;100790.91;2090583;28;1056;-72
2021/03/16 03:17:24;;;;;;;;;;;;;;;20.88;51.27;100796.59;2090339;28;1275;-72
2021/03/16 03:18:25;;;;;;;;;;;;;;;20.87;51.28;100798.63;2089897;28;1708;-72
2021/03/16 03:19:26;;;;;;;;;;;;;;;20.88;51.12;100799.44;2090158;28;1794;-71
2021/03/16 03:20:27;;;;;;;;;;;;;;;20.88;51.27;100796.59;2090693;28;1121;-73
2021/03/16 03:21:27;;;;;;;;;;;;;;;20.86;51.35;100791.25;2089848;28;1794;-73
2021/03/16 03:22:29;;;;;;;;;;;;;;;20.87;51.30;100798.63;2088795;28;1055;-74
2021/03/16 03:23:31;;;;;;;;;;;;;;;20.86;51.20;100796.94;2089875;28;1576;-74
2021/03/16 03:24:31;;;;;;;;;;;;;;;20.87;51.19;100807.16;2090520;28;2206;-74
2021/03/16 03:25:32;;;;;;;;;;;;;;;20.86;51.24;100814.00;2082610;28;1147;-73
2021/03/16 03:26:33;;;;;;;;;;;;;;;20.88;51.12;100807.97;2090097;28;1639;-73
2021/03/16 03:27:34;;;;;;;;;;;;;;;20.87;51.15;100807.16;2090556;28;1119;-73
2021/03/16 03:28:34;;;;;;;;;;;;;;;20.87;51.26;100803.47;2089275;28;1228;-72
2021/03/16 03:29:35;;;;;;;;;;;;;;;20.86;51.14;100810.34;2090390;28;1983;-73
2021/03/16 03:30:36;;;;;;;;;;;;;;;20.86;51.28;100810.34;2090751;28;2256;-74
2021/03/16 03:31:37;;;;;;;;;;;;;;;20.86;51.28;100814.00;2086695;28;1692;-73
2021/03/16 03:32:38;;;;;;;;;;;;;;;20.87;51.24;100806.31;2090440;28;1397;-73
2021/03/16 03:33:39;;;;;;;;;;;;;;;20.86;51.19;100811.16;2084077;28;1750;-73
2021/03/16 03:34:40;;;;;;;;;;;;;;;20.86;51.18;100816.84;2090618;28;1152;-73
2021/03/16 03:35:41;;;;;;;;;;;;;;;20.86;51.22;100807.50;2090621;28;1120;-73
2021/03/16 03:36:42;;;;;;;;;;;;;;;20.86;51.22;100816.03;2095131;28;1787;-73
2021/03/16 03:37:42;;;;;;;;;;;;;;;20.86;51.14;100824.56;2090605;28;1075;-74
2021/03/16 03:38:43;;;;;;;;;;;;;;;20.85;51.10;100812.34;2082499;28;807;-73
2021/03/16 03:39:44;;;;;;;;;;;;;;;20.85;51.16;100812.34;2090392;28;1183;-74
2021/03/16 03:40:46;;;;;;;;;;;;;;;20.85;51.29;100823.72;2086213;28;2318;-73
2021/03/16 03:41:47;;;;;;;;;;;;;;;20.85;51.16;100828.59;2090061;28;1743;-74
2021/03/16 03:42:47;;;;;;;;;;;;;;;20.84;51.12;100824.06;2080540;28;1245;-74
2021/03/16 03:43:48;;;;;;;;;;;;;;;20.85;51.05;100828.59;2081458;28;1143;-72
2021/03/16 03:44:49;;;;;;;;;;;;;;;20.84;50.94;100822.09;2089428;28;1757;-72
2021/03/16 03:45:50;;;;;;;;;;;;;;;20.84;51.07;100824.06;2089365;28;1793;-72
2021/03/16 03:46:51;;;;;;;;;;;;;;;20.83;50.97;100828.94;2090349;28;1170;-73
2021/03/16 03:47:52;;;;;;;;;;;;;;;20.83;51.14;100828.09;2090144;28;1001;-73
2021/03/16 03:48:52;;;;;;;;;;;;;;;20.83;50.99;100834.63;2088766;28;1926;-72
2021/03/16 03:49:53;;;;;;;;;;;;;;;20.84;50.98;100830.59;2090395;28;1186;-71
2021/03/16 03:50:54;;;;;;;;;;;;;;;20.83;51.08;100834.63;2090199;28;2119;-72
2021/03/16 03:51:55;;;;;;;;;;;;;;;20.84;50.83;100835.44;2089106;28;1132;-71
2021/03/16 03:52:55;;;;;;;;;;;;;;;20.84;50.89;100839.13;2090172;28;1158;-71
2021/03/16 03:53:56;;;;;;;;;;;;;;;20.84;51.06;100838.28;2090500;28;1098;-71
2021/03/16 03:54:57;;;;;;;;;;;;;;;20.83;51.06;100842.31;2090171;28;1722;-71
2021/03/16 03:55:57;;;;;;;;;;;;;;;20.83;50.90;100843.16;2090265;28;1182;-71
2021/03/16 03:56:59;;;;;;;;;;;;;;;20.83;50.90;100840.31;2089904;28;1249;-71
2021/03/16 03:58:00;;;;;;;;;;;;;;;20.83;50.88;100833.78;2089374;28;1087;-71
2021/03/16 03:59:01;;;;;;;;;;;;;;;20.83;50.87;100834.63;2090264;28;1072;-71
2021/03/16 04:00:01;;;;;;;;;;;;;;;20.82;50.90;100838.66;2090302;28;1112;-72
2021/03/16 04:01:02;;;;;;;;;;;;;;;20.83;50.96;100845.16;2089230;28;1235;-72
2021/03/16 04:02:03;;;;;;;;;;;;;;;20.82;50.84;100847.19;2090249;28;1098;-72
2021/03/16 04:03:04;;;;;;;;;;;;;;;20.82;50.79;100850.03;2090162;28;1165;-72
2021/03/16 04:04:05;;;;;;;;;;;;;;;20.82;50.91;100841.50;2090208;28;1116;-72
2021/03/16 04:05:06;;;;;;;;;;;;;;;20.82;50.95;100849.19;2089793;28;1332;-72
2021/03/16 04:06:06;;;;;;;;;;;;;;;20.82;50.89;100850.03;2089114;28;1077;-73
2021/03/16 04:07:07;;;;;;;;;;;;;;;20.82;50.82;100843.50;2089972;28;1658;-72
2021/03/16 04:08:08;;;;;;;;;;;;;;;20.81;50.74;100854.03;2081421;28;1252;-72
2021/03/16 04:09:09;;;;;;;;;;;;;;;20.82;51.00;100860.56;2081615;28;1984;-72
2021/03/16 04:10:09;;;;;;;;;;;;;;;20.82;50.79;100852.03;2089356;28;1251;-73
2021/03/16 04:11:11;;;;;;;;;;;;;;;20.82;50.95;100860.56;2089920;28;1084;-72
2021/03/16 04:12:11;;;;;;;;;;;;;;;20.81;50.82;100851.19;2090425;28;1087;-72
2021/03/16 04:13:12;;;;;;;;;;;;;;;20.81;50.84;100859.72;2090297;28;1150;-72
2021/03/16 04:14:13;;;;;;;;;;;;;;;20.80;50.92;100860.91;2090407;28;1119;-71
2021/03/16 04:15:14;;;;;;;;;;;;;;;20.81;50.84;100862.56;2090343;28;1131;-72
2021/03/16 04:16:15;;;;;;;;;;;;;;;20.80;50.93;100860.91;2088255;28;1993;-72
2021/03/16 04:17:16;;;;;;;;;;;;;;;20.81;50.69;100856.88;2087550;28;1925;-74
2021/03/16 04:18:17;;;;;;;;;;;;;;;20.81;50.80;100864.59;2086932;28;1157;-72
2021/03/16 04:19:18;;;;;;;;;;;;;;;20.81;50.72;100864.59;2089868;28;1936;-72
2021/03/16 04:20:18;;;;;;;;;;;;;;;20.80;50.73;100866.59;2089921;28;1858;-72
2021/03/16 04:21:19;;;;;;;;;;;;;;;20.80;50.85;100880.00;2090512;28;1076;-72
2021/03/16 04:22:20;;;;;;;;;;;;;;;20.80;50.79;100869.44;2090299;28;1237;-72
2021/03/16 04:23:21;;;;;;;;;;;;;;;20.80;50.85;100869.44;2090526;28;1135;-72
2021/03/16 04:24:21;;;;;;;;;;;;;;;20.80;50.76;100866.59;2090348;28;1099;-72
2021/03/16 04:25:22;;;;;;;;;;;;;;;20.80;50.71;100868.63;2090448;28;1762;-71
2021/03/16 04:26:23;;;;;;;;;;;;;;;20.80;50.71;100866.59;2090098;28;1314;-71
2021/03/16 04:27:24;;;;;;;;;;;;;;;20.79;50.67;100876.31;2089370;28;1834;-72
2021/03/16 04:28:25;;;;;;;;;;;;;;;20.79;50.62;100876.31;2089374;28;2357;-70
2021/03/16 04:29:26;;;;;;;;;;;;;;;20.79;50.63;100881.19;2090097;28;1918;-71
2021/03/16 04:30:27;;;;;;;;;;;;;;;20.79;50.74;100878.34;2090254;28;1107;-72
2021/03/16 04:31:28;;;;;;;;;;;;;;;20.78;50.77;100876.66;2088908;28;2283;-72
2021/03/16 04:32:28;;;;;;;;;;;;;;;20.79;50.57;100879.16;2090309;28;1208;-71
2021/03/16 04:33:29;;;;;;;;;;;;;;;20.79;50.72;100886.88;2090830;28;1096;-73
2021/03/16 04:34:30;;;;;;;;;;;;;;;20.79;50.64;100882.00;2089521;28;1790;-73
2021/03/16 04:35:31;;;;;;;;;;;;;;;20.79;50.62;100881.19;2089688;28;1739;-73
2021/03/16 04:36:32;;;;;;;;;;;;;;;20.78;50.82;100880.34;2090270;28;1131;-73
2021/03/16 04:37:32;;;;;;;;;;;;;;;20.78;50.68;100883.16;2089924;28;1412;-73
2021/03/16 04:38:33;;;;;;;;;;;;;;;20.78;50.50;100880.34;2088235;28;1936;-73
2021/03/16 04:39:34;;;;;;;;;;;;;;;20.77;50.67;100875.84;2090324;28;1123;-73
2021/03/16 04:40:35;;;;;;;;;;;;;;;20.78;50.52;100886.00;2089755;28;2251;-73
2021/03/16 04:41:35;;;;;;;;;;;;;;;20.78;50.52;100885.19;2087426;28;2184;-73
2021/03/16 04:42:36;;;;;;;;;;;;;;;20.78;50.47;100888.84;2088786;28;1176;-73
2021/03/16 04:43:41;;;;;;;;;;;;;;;20.78;50.68;100891.69;2090318;28;1072;-72
2021/03/16 04:44:42;;;;;;;;;;;;;;;20.79;50.49;100895.41;2090246;28;1108;-72
2021/03/16 04:45:43;;;;;;;;;;;;;;;20.77;50.61;100890.06;2090385;28;1172;-72
2021/03/16 04:46:44;;;;;;;;;;;;;;;20.78;50.64;100902.25;2090176;28;1067;-72
2021/03/16 04:47:45;;;;;;;;;;;;;;;20.77;50.46;100898.59;2089999;28;1384;-72
2021/03/16 04:48:46;;;;;;;;;;;;;;;20.78;50.46;100893.72;2089343;28;1902;-73
2021/03/16 04:49:47;;;;;;;;;;;;;;;20.78;50.51;100903.06;2090130;28;1973;-73
2021/03/16 04:50:47;;;;;;;;;;;;;;;20.77;50.57;100894.91;2089932;28;1243;-73
2021/03/16 04:51:48;;;;;;;;;;;;;;;20.77;50.44;100900.59;2087228;28;2289;-74
2021/03/16 04:52:49;;;;;;;;;;;;;;;20.76;50.44;100894.09;2089882;28;1100;-73
2021/03/16 04:53:49;;;;;;;;;;;;;;;20.77;50.47;100901.44;2089247;28;1359;-74
2021/03/16 04:54:50;;;;;;;;;;;;;;;20.76;50.50;100899.78;2089634;28;1924;-74
2021/03/16 04:55:51;;;;;;;;;;;;;;;20.76;50.59;100911.16;2090019;28;1150;-74
2021/03/16 04:57:10;;;;;;;;;;;;;;;20.76;50.45;100899.78;2090193;28;1052;-73
2021/03/16 04:58:11;;;;;;;;;;;;;;;20.77;50.44;100911.97;2089817;28;1362;-74
2021/03/16 04:59:12;;;;;;;;;;;;;;;20.76;50.38;100905.47;2088746;28;1930;-73
2021/03/16 05:00:12;;;;;;;;;;;;;;;20.77;50.50;100911.97;2090875;28;1771;-73
2021/03/16 05:01:13;;;;;;;;;;;;;;;20.77;50.35;100909.13;2090046;28;2401;-74
2021/03/16 05:02:16;;;;;;;;;;;;;;;20.77;50.38;100918.47;2091645;28;1981;-74
2021/03/16 05:03:17;;;;;;;;;;;;;;;20.76;50.52;100921.66;2088207;28;1069;-73
2021/03/16 05:04:19;;;;;;;;;;;;;;;20.77;50.49;100923.34;2091444;28;1067;-72
2021/03/16 05:05:20;;;;;;;;;;;;;;;20.76;50.47;100922.53;2091596;28;1107;-74
2021/03/16 05:06:21;;;;;;;;;;;;;;;20.76;50.39;100930.19;2091655;28;1348;-74
2021/03/16 05:07:21;;;;;;;;;;;;;;;20.76;50.43;100931.06;2090623;28;1154;-74
2021/03/16 05:08:22;;;;;;;;;;;;;;;20.75;50.43;100931.38;2091089;28;1370;-75
2021/03/16 05:09:23;;;;;;;;;;;;;;;20.76;50.48;100933.03;2091154;28;1984;-75
2021/03/16 05:10:23;;;;;;;;;;;;;;;20.75;50.44;100937.06;2091748;28;1142;-75
2021/03/16 05:11:24;;;;;;;;;;;;;;;20.76;50.60;100933.03;2089813;28;1933;-75
2021/03/16 05:12:25;;;;;;;;;;;;;;;20.76;50.61;100944.41;2091406;28;1151;-76
2021/03/16 05:13:26;;;;;;;;;;;;;;;20.76;50.61;100935.88;2091017;28;1910;-75
2021/03/16 05:14:26;;;;;;;;;;;;;;;20.76;50.64;100935.88;2090504;28;1149;-75
2021/03/16 05:15:27;;;;;;;;;;;;;;;20.76;50.77;100945.25;2091385;28;1048;-75
2021/03/16 05:16:28;;;;;;;;;;;;;;;20.76;50.86;100936.75;2090639;28;1959;-73
2021/03/16 05:17:29;;;;;;;;;;;;;;;20.75;50.96;100952.13;2088752;28;1913;-76
2021/03/16 05:18:30;;;;;;;;;;;;;;;20.76;50.84;100941.56;2088024;28;1903;-76